Time;durP1;ratioP1;P1;durP2;ratioP2;P2;SDS_P1;SDS_P2;PMS_P1;PMS_P2;Temp;Humidity;BMP_temperature;BMP_pressure;BME280_temperature;BME280_humidity;BME280_pressure;Samples;Min_cycle;Max_cycle;Signal;HPM_P1;HPM_P2
2022/09/27 00:00:28;;;;;;;1.50;1.40;;;10.90;99.90;;;;;;5082983;28;20285;-86
2022/09/27 00:02:56;;;;;;;1.40;1.30;;;11.00;99.90;;;;;;5080171;28;20244;-85
2022/09/27 00:05:23;;;;;;;1.20;1.10;;;11.00;99.90;;;;;;5071789;28;20257;-86
2022/09/27 00:07:50;;;;;;;3.13;1.37;;;11.00;99.90;;;;;;5071800;28;20229;-86
2022/09/27 00:10:18;;;;;;;1.27;1.00;;;11.10;99.90;;;;;;5081183;28;20632;-86
2022/09/27 00:12:45;;;;;;;2.40;1.07;;;11.00;99.90;;;;;;5077594;28;20197;-86
2022/09/27 00:15:12;;;;;;;2.90;1.00;;;11.00;99.90;;;;;;5082949;28;20294;-86
2022/09/27 00:17:40;;;;;;;0.70;0.70;;;11.00;99.90;;;;;;5084312;28;20265;-86
2022/09/27 00:20:09;;;;;;;1.13;1.00;;;11.00;99.90;;;;;;5071808;28;20641;-86
2022/09/27 00:22:36;;;;;;;0.90;0.90;;;11.00;99.90;;;;;;5072681;28;20285;-86
2022/09/27 00:25:06;;;;;;;1.07;0.97;;;11.10;99.90;;;;;;5069781;28;20210;-86
2022/09/27 00:27:33;;;;;;;0.80;0.80;;;11.00;99.90;;;;;;5081433;28;20263;-86
2022/09/27 00:30:00;;;;;;;1.17;0.90;;;11.00;99.90;;;;;;5071307;28;20289;-85
2022/09/27 00:32:26;;;;;;;1.13;1.00;;;11.10;99.90;;;;;;5077487;28;20240;-85
2022/09/27 00:34:53;;;;;;;3.00;1.40;;;11.10;99.90;;;;;;5086980;28;20228;-86
2022/09/27 00:37:22;;;;;;;1.03;0.80;;;11.00;99.90;;;;;;5090535;28;20293;-86
2022/09/27 00:39:49;;;;;;;1.20;1.10;;;11.00;99.90;;;;;;5088285;28;20205;-86
2022/09/27 00:42:16;;;;;;;1.47;1.10;;;11.00;99.90;;;;;;5075235;28;20206;-86
2022/09/27 00:45:04;;;;;;;0.70;0.70;;;11.00;99.90;;;;;;5071275;28;20293;-86
2022/09/27 00:47:39;;;;;;;0.80;0.80;;;11.00;99.90;;;;;;5069988;28;20230;-86
2022/09/27 00:50:13;;;;;;;1.03;0.80;;;11.00;99.90;;;;;;5071143;28;20629;-86
2022/09/27 00:52:48;;;;;;;1.20;1.03;;;11.10;99.90;;;;;;5073083;28;20293;-86
2022/09/27 00:55:18;;;;;;;1.40;1.30;;;11.00;99.90;;;;;;5076434;28;20243;-86
2022/09/27 00:57:46;;;;;;;2.70;1.00;;;11.10;99.90;;;;;;5064500;28;20313;-86
2022/09/27 01:00:15;;;;;;;1.20;0.73;;;11.00;99.90;;;;;;5077392;28;20285;-86
2022/09/27 01:02:45;;;;;;;0.80;0.80;;;11.10;99.90;;;;;;5080169;28;20213;-86
2022/09/27 01:05:15;;;;;;;0.97;0.90;;;11.00;99.90;;;;;;5073860;28;20237;-86
2022/09/27 01:07:44;;;;;;;1.17;1.07;;;11.00;99.90;;;;;;5077490;28;20304;-85
2022/09/27 01:10:11;;;;;;;0.87;0.87;;;10.90;99.90;;;;;;5069815;28;20238;-85
2022/09/27 01:12:49;;;;;;;0.90;0.90;;;11.00;99.90;;;;;;5072384;28;20289;-86
2022/09/27 01:15:26;;;;;;;1.03;0.93;;;10.90;99.90;;;;;;5072471;28;20301;-86
2022/09/27 01:18:06;;;;;;;1.80;1.07;;;11.00;99.90;;;;;;5085079;28;20246;-86
2022/09/27 01:21:07;;;;;;;1.17;1.00;;;11.10;99.90;;;;;;5085659;28;20280;-86
2022/09/27 01:23:54;;;;;;;1.40;1.30;;;11.00;99.90;;;;;;5071306;28;20213;-86
2022/09/27 01:26:35;;;;;;;3.17;1.60;;;11.10;99.90;;;;;;5074209;28;20222;-86
2022/09/27 01:29:09;;;;;;;1.53;1.43;;;11.10;99.90;;;;;;5086414;28;20527;-85
2022/09/27 01:31:45;;;;;;;3.10;1.37;;;11.00;99.90;;;;;;5079838;28;20245;-86
2022/09/27 01:34:23;;;;;;;1.60;1.50;;;11.00;99.90;;;;;;5075281;28;20232;-86
2022/09/27 01:36:56;;;;;;;1.83;1.40;;;11.00;99.90;;;;;;5070916;28;20604;-86
2022/09/27 01:39:34;;;;;;;1.87;1.50;;;11.10;99.90;;;;;;5090129;28;20306;-86
2022/09/27 01:42:05;;;;;;;1.90;1.47;;;11.10;99.90;;;;;;5077024;28;20240;-86
2022/09/27 01:44:38;;;;;;;2.17;1.50;;;11.10;99.90;;;;;;5068631;28;20288;-85
2022/09/27 01:47:12;;;;;;;1.63;1.53;;;11.00;99.90;;;;;;5079168;28;20280;-86
2022/09/27 01:49:47;;;;;;;1.50;1.40;;;11.00;99.90;;;;;;5075434;28;20280;-86
2022/09/27 01:52:16;;;;;;;2.60;1.60;;;11.00;99.90;;;;;;5072083;28;20220;-86
2022/09/27 01:54:47;;;;;;;1.70;1.60;;;11.10;99.90;;;;;;5085718;28;20300;-85
2022/09/27 01:57:20;;;;;;;2.00;1.80;;;11.10;99.90;;;;;;5072762;28;20281;-86
2022/09/27 01:59:53;;;;;;;1.70;1.60;;;11.10;99.90;;;;;;5085944;28;20313;-86
2022/09/27 02:02:27;;;;;;;2.33;1.80;;;11.00;99.90;;;;;;5087815;28;20661;-86
2022/09/27 02:04:57;;;;;;;4.60;1.73;;;11.20;99.90;;;;;;5082786;28;20201;-86
2022/09/27 02:07:32;;;;;;;2.27;1.40;;;11.00;99.90;;;;;;5072288;28;20248;-86
2022/09/27 02:10:02;;;;;;;4.70;2.07;;;11.00;99.90;;;;;;5083395;28;20301;-86
2022/09/27 02:12:35;;;;;;;2.83;1.80;;;11.00;99.90;;;;;;5070559;28;20286;-85
2022/09/27 02:15:07;;;;;;;6.40;2.20;;;11.00;99.90;;;;;;5069798;28;20230;-85
2022/09/27 02:17:44;;;;;;;1.73;1.63;;;11.10;99.90;;;;;;5078785;28;20642;-86
2022/09/27 02:20:18;;;;;;;7.60;2.10;;;11.00;99.90;;;;;;5065312;28;20632;-86
2022/09/27 02:22:50;;;;;;;2.10;1.90;;;11.00;99.90;;;;;;5070814;28;20682;-86
2022/09/27 02:25:23;;;;;;;2.60;2.40;;;11.00;99.90;;;;;;5082518;28;20218;-86
2022/09/27 02:27:57;;;;;;;1.93;1.80;;;11.00;99.90;;;;;;5071505;28;20230;-86
2022/09/27 02:30:24;;;;;;;2.57;1.87;;;11.00;99.90;;;;;;5071617;28;20572;-86
2022/09/27 02:32:53;;;;;;;3.20;2.10;;;11.10;99.90;;;;;;5074659;28;20281;-86
2022/09/27 02:35:26;;;;;;;3.13;2.27;;;11.00;99.90;;;;;;5071739;28;20301;-86
2022/09/27 02:37:54;;;;;;;4.33;2.60;;;11.00;99.90;;;;;;5088270;28;20239;-86
2022/09/27 02:40:22;;;;;;;3.17;2.20;;;11.00;99.90;;;;;;5090476;28;20190;-86
2022/09/27 02:42:49;;;;;;;2.60;2.40;;;11.10;99.90;;;;;;5088568;28;20230;-86
2022/09/27 02:45:18;;;;;;;3.87;2.40;;;11.10;99.90;;;;;;5076309;28;20228;-86
2022/09/27 02:47:59;;;;;;;4.00;2.40;;;11.00;99.90;;;;;;5088792;28;20608;-86
2022/09/27 02:50:57;;;;;;;5.90;2.50;;;11.00;99.90;;;;;;5081438;28;20285;-86
2022/09/27 02:53:36;;;;;;;5.70;3.30;;;11.10;99.90;;;;;;5077966;28;20667;-86
2022/09/27 02:56:13;;;;;;;3.37;2.50;;;11.00;99.90;;;;;;5074189;28;20228;-86
2022/09/27 02:58:51;;;;;;;2.77;2.20;;;11.00;99.90;;;;;;5081170;28;20284;-86
2022/09/27 03:01:29;;;;;;;4.97;2.13;;;11.00;99.90;;;;;;5084367;28;20238;-85
2022/09/27 03:04:04;;;;;;;2.40;2.20;;;11.00;99.90;;;;;;5073748;28;20194;-85
2022/09/27 03:06:33;;;;;;;2.80;2.60;;;11.00;99.90;;;;;;5078731;28;20226;-85
2022/09/27 03:09:00;;;;;;;6.43;2.57;;;11.00;99.90;;;;;;5073370;28;20199;-85
2022/09/27 03:11:27;;;;;;;3.07;2.47;;;11.00;99.90;;;;;;5074498;28;20198;-85
2022/09/27 03:13:53;;;;;;;4.13;2.70;;;11.00;99.90;;;;;;5087086;28;20201;-85
2022/09/27 03:16:20;;;;;;;3.23;2.73;;;11.00;99.90;;;;;;5079602;28;20308;-85
2022/09/27 03:18:47;;;;;;;4.07;2.90;;;11.00;99.90;;;;;;5075326;28;20297;-85
2022/09/27 03:21:15;;;;;;;3.43;2.90;;;11.10;99.90;;;;;;5082807;28;20230;-84
2022/09/27 03:23:42;;;;;;;4.27;2.73;;;10.90;99.90;;;;;;5090902;28;20297;-84
2022/09/27 03:26:09;;;;;;;5.17;3.27;;;10.90;99.90;;;;;;5076352;28;20234;-84
2022/09/27 03:28:36;;;;;;;4.03;3.13;;;10.90;99.90;;;;;;5075272;28;20580;-84
2022/09/27 03:31:03;;;;;;;6.00;3.40;;;10.90;99.90;;;;;;5086604;28;20300;-85
2022/09/27 03:33:30;;;;;;;5.23;3.73;;;10.90;99.90;;;;;;5087230;28;20218;-84
2022/09/27 03:35:57;;;;;;;7.10;3.60;;;10.90;99.90;;;;;;5077107;28;20254;-84
2022/09/27 03:38:25;;;;;;;6.87;3.53;;;10.80;99.90;;;;;;5077554;28;20198;-83
2022/09/27 03:40:52;;;;;;;5.13;3.10;;;10.80;99.90;;;;;;5076037;28;20220;-83
2022/09/27 03:43:19;;;;;;;7.80;3.80;;;10.80;99.90;;;;;;5073979;28;20214;-83
2022/09/27 03:45:46;;;;;;;4.87;3.63;;;10.80;99.90;;;;;;5073626;28;20260;-83
2022/09/27 03:48:13;;;;;;;5.00;3.70;;;10.80;99.90;;;;;;5075074;28;20304;-84
2022/09/27 03:50:40;;;;;;;7.03;4.10;;;10.80;99.90;;;;;;5075845;28;20205;-84
2022/09/27 03:53:07;;;;;;;9.30;4.27;;;10.80;99.90;;;;;;5075711;28;20284;-84
2022/09/27 03:55:35;;;;;;;6.67;3.80;;;10.80;99.90;;;;;;5076068;28;20440;-84
2022/09/27 03:58:02;;;;;;;5.80;3.87;;;10.80;99.90;;;;;;5076152;28;20222;-84
2022/09/27 04:00:31;;;;;;;7.10;3.80;;;10.80;99.90;;;;;;5076886;28;20305;-83
2022/09/27 04:02:58;;;;;;;7.40;3.83;;;10.70;99.90;;;;;;5077838;28;20701;-84
2022/09/27 04:05:26;;;;;;;5.23;3.50;;;10.70;99.90;;;;;;5078005;28;20226;-84
2022/09/27 04:07:53;;;;;;;7.80;4.20;;;10.70;99.90;;;;;;5077193;28;20209;-84
2022/09/27 04:10:20;;;;;;;6.37;3.67;;;10.80;99.90;;;;;;5074939;28;20734;-84
2022/09/27 04:12:50;;;;;;;8.20;3.70;;;10.70;99.90;;;;;;5078108;28;20238;-84
2022/09/27 04:15:17;;;;;;;4.17;2.87;;;10.70;99.90;;;;;;5078230;28;20245;-84
2022/09/27 04:17:44;;;;;;;5.00;3.13;;;10.80;99.90;;;;;;5077820;28;20392;-84
2022/09/27 04:20:11;;;;;;;3.70;3.17;;;10.80;99.90;;;;;;5076846;28;20309;-84
2022/09/27 04:22:40;;;;;;;8.03;3.30;;;10.80;99.90;;;;;;5077516;28;20233;-84
2022/09/27 04:25:09;;;;;;;4.23;2.80;;;10.80;99.90;;;;;;5080543;28;20234;-83
2022/09/27 04:27:36;;;;;;;6.53;3.00;;;10.80;99.90;;;;;;5079259;28;20300;-84
2022/09/27 04:30:05;;;;;;;4.90;2.80;;;10.80;99.90;;;;;;5079518;28;20224;-84
2022/09/27 04:32:32;;;;;;;7.20;4.30;;;10.80;99.90;;;;;;5076305;28;20297;-84
2022/09/27 04:37:44;;;;;;;4.37;2.50;;;10.80;99.90;;;;;;5078682;28;20224;-84
2022/09/27 04:40:11;;;;;;;3.13;2.30;;;10.80;99.90;;;;;;5077739;28;20230;-84
2022/09/27 04:42:38;;;;;;;4.13;2.00;;;10.80;99.90;;;;;;5078293;28;20216;-84
2022/09/27 04:45:07;;;;;;;1.97;1.87;;;10.80;99.90;;;;;;5078832;28;20634;-83
2022/09/27 04:47:34;;;;;;;2.67;1.63;;;10.70;99.90;;;;;;5078337;28;20224;-84
2022/09/27 04:50:01;;;;;;;3.03;2.00;;;10.80;99.90;;;;;;5075880;28;20247;-84
2022/09/27 04:52:28;;;;;;;3.97;2.30;;;10.70;99.90;;;;;;5076734;28;20241;-84
2022/09/27 04:54:55;;;;;;;3.97;2.07;;;10.70;99.90;;;;;;5076552;28;20241;-84
2022/09/27 04:57:22;;;;;;;3.90;2.20;;;10.70;99.90;;;;;;5076503;28;20253;-84
2022/09/27 04:59:49;;;;;;;3.10;2.13;;;10.70;99.90;;;;;;5078213;28;20305;-84
2022/09/27 05:02:18;;;;;;;2.73;2.00;;;10.70;99.90;;;;;;5078354;28;20213;-84
2022/09/27 05:04:45;;;;;;;3.73;1.90;;;10.70;99.90;;;;;;5077725;28;20205;-83
2022/09/27 05:07:11;;;;;;;1.87;1.50;;;10.80;99.90;;;;;;5076388;28;20309;-83
2022/09/27 05:09:38;;;;;;;2.47;1.90;;;10.70;99.90;;;;;;5078614;28;20234;-84
2022/09/27 05:12:07;;;;;;;3.37;1.83;;;10.70;99.90;;;;;;5077058;28;20285;-84
2022/09/27 05:14:34;;;;;;;4.00;1.93;;;10.70;99.90;;;;;;5076816;28;20202;-83
2022/09/27 05:17:01;;;;;;;4.30;1.50;;;10.70;99.90;;;;;;5077010;28;20253;-84
2022/09/27 05:19:29;;;;;;;4.03;1.73;;;10.80;99.90;;;;;;5075280;28;20280;-84
2022/09/27 05:21:56;;;;;;;3.53;2.00;;;10.70;99.90;;;;;;5075452;28;20202;-83
2022/09/27 05:24:23;;;;;;;2.20;1.83;;;10.60;99.90;;;;;;5074666;28;20292;-84
2022/09/27 05:26:50;;;;;;;5.37;1.53;;;10.60;99.90;;;;;;5077535;28;20280;-84
2022/09/27 05:29:17;;;;;;;1.90;1.43;;;10.70;99.90;;;;;;5076306;28;20198;-83
2022/09/27 05:31:44;;;;;;;2.17;1.20;;;10.60;99.90;;;;;;5076474;28;20220;-83
2022/09/27 05:34:11;;;;;;;1.80;1.40;;;10.70;99.90;;;;;;5078227;28;20241;-84
2022/09/27 05:36:40;;;;;;;1.50;1.40;;;10.60;99.90;;;;;;5076256;28;20247;-84
2022/09/27 05:39:07;;;;;;;2.57;1.50;;;10.60;99.90;;;;;;5076859;28;20245;-84
2022/09/27 05:41:33;;;;;;;2.47;1.53;;;10.60;99.90;;;;;;5076719;28;20202;-84
2022/09/27 05:44:01;;;;;;;2.80;1.50;;;10.60;99.90;;;;;;5076405;28;20281;-84
2022/09/27 05:46:28;;;;;;;2.40;1.80;;;10.60;99.90;;;;;;5074118;28;20228;-84
2022/09/27 05:48:54;;;;;;;4.40;2.00;;;10.60;99.90;;;;;;5073972;28;20210;-84
2022/09/27 05:51:21;;;;;;;2.80;1.90;;;10.60;99.90;;;;;;5074775;28;20212;-84
2022/09/27 05:53:49;;;;;;;3.17;2.10;;;10.60;99.90;;;;;;5074132;28;20301;-84
2022/09/27 05:56:16;;;;;;;5.27;2.10;;;10.60;99.90;;;;;;5076938;28;20253;-84
2022/09/27 05:58:43;;;;;;;4.57;2.80;;;10.60;99.90;;;;;;5076028;28;20202;-84
2022/09/27 06:01:11;;;;;;;6.63;3.47;;;10.60;99.90;;;;;;5073610;28;20293;-84
2022/09/27 06:03:39;;;;;;;6.40;3.70;;;10.60;99.90;;;;;;5073564;28;20289;-84
2022/09/27 06:06:09;;;;;;;7.50;3.60;;;10.60;99.90;;;;;;5075057;28;20717;-83
2022/09/27 06:08:37;;;;;;;7.47;4.10;;;10.70;99.90;;;;;;5076128;28;20198;-84
2022/09/27 06:11:07;;;;;;;5.30;3.20;;;10.70;99.90;;;;;;5078404;28;20298;-84
2022/09/27 06:13:35;;;;;;;6.33;3.43;;;10.70;99.90;;;;;;5079043;28;20248;-84
2022/09/27 06:16:10;;;;;;;5.80;2.70;;;10.70;99.90;;;;;;5079137;28;20618;-84
2022/09/27 06:18:38;;;;;;;5.90;3.00;;;10.70;99.90;;;;;;5078979;28;20209;-84
2022/09/27 06:21:10;;;;;;;4.40;2.70;;;10.70;99.90;;;;;;5078315;28;20254;-84
2022/09/27 06:23:41;;;;;;;4.17;3.00;;;10.80;99.90;;;;;;5078985;28;20190;-84
2022/09/27 06:26:10;;;;;;;7.20;3.27;;;10.70;99.90;;;;;;5078794;28;20261;-83
2022/09/27 06:28:37;;;;;;;5.40;2.80;;;10.70;99.90;;;;;;5078682;28;20202;-84
2022/09/27 06:31:07;;;;;;;3.53;2.30;;;10.70;99.90;;;;;;5077934;28;20202;-84
2022/09/27 06:33:34;;;;;;;4.00;2.80;;;10.60;99.90;;;;;;5078342;28;20214;-84
2022/09/27 06:36:02;;;;;;;5.87;2.97;;;10.70;99.90;;;;;;5078709;28;20313;-84
2022/09/27 06:38:29;;;;;;;4.07;2.87;;;10.70;99.90;;;;;;5078290;28;20293;-84
2022/09/27 06:40:57;;;;;;;3.03;2.70;;;10.70;99.90;;;;;;5077430;28;20254;-84
2022/09/27 06:43:30;;;;;;;4.57;2.90;;;10.70;99.90;;;;;;5077704;28;20206;-84
2022/09/27 06:46:03;;;;;;;5.73;3.07;;;10.80;99.90;;;;;;5077750;28;20245;-83
2022/09/27 06:48:30;;;;;;;7.50;4.00;;;10.80;99.90;;;;;;5077297;28;20241;-84
2022/09/27 06:51:00;;;;;;;7.33;3.13;;;10.80;99.90;;;;;;5076185;28;20650;-84
2022/09/27 06:53:28;;;;;;;6.70;2.93;;;10.80;99.90;;;;;;5076776;28;20276;-84
2022/09/27 06:55:58;;;;;;;4.90;2.93;;;10.90;99.90;;;;;;5076871;28;20305;-84
2022/09/27 07:01:11;;;;;;;6.03;2.50;;;10.90;99.90;;;;;;5075975;28;20633;-83
2022/09/27 07:03:40;;;;;;;4.27;2.73;;;10.90;99.90;;;;;;5076286;28;20217;-84
2022/09/27 07:06:15;;;;;;;6.13;2.63;;;10.90;99.90;;;;;;5075659;28;20225;-84
2022/09/27 07:08:42;;;;;;;7.83;2.47;;;10.80;99.90;;;;;;5075270;28;20290;-83
2022/09/27 07:11:09;;;;;;;2.50;2.23;;;10.90;99.90;;;;;;5075411;28;20198;-84
2022/09/27 07:13:41;;;;;;;5.83;3.27;;;10.90;99.90;;;;;;5075494;28;20309;-85
2022/09/27 07:16:10;;;;;;;4.53;2.73;;;11.00;99.90;;;;;;5075918;28;20218;-84
2022/09/27 07:18:37;;;;;;;3.83;2.50;;;11.00;99.90;;;;;;5075110;28;20206;-85
2022/09/27 07:21:04;;;;;;;3.53;2.37;;;11.00;99.90;;;;;;5074702;28;20238;-84
2022/09/27 07:23:36;;;;;;;5.97;2.30;;;11.10;99.90;;;;;;5074776;28;20301;-85
2022/09/27 07:26:06;;;;;;;3.50;2.20;;;11.10;99.90;;;;;;5075511;28;20313;-84
2022/09/27 07:28:33;;;;;;;4.13;2.20;;;11.00;99.90;;;;;;5075038;28;20305;-84
2022/09/27 07:31:02;;;;;;;3.13;2.17;;;11.00;99.90;;;;;;5074531;28;20679;-83
2022/09/27 07:33:30;;;;;;;3.43;2.67;;;11.10;99.90;;;;;;5074931;28;20206;-85
2022/09/27 07:35:57;;;;;;;5.97;2.77;;;11.10;99.90;;;;;;5074463;28;20305;-83
2022/09/27 07:38:24;;;;;;;6.17;3.10;;;11.00;99.90;;;;;;5074734;28;20575;-84
2022/09/27 07:40:51;;;;;;;6.20;3.77;;;11.00;99.90;;;;;;5074073;28;20218;-84
2022/09/27 07:43:18;;;;;;;5.30;3.00;;;11.00;99.90;;;;;;5073791;28;20221;-84
2022/09/27 07:45:45;;;;;;;4.30;2.83;;;11.00;99.90;;;;;;5073736;28;20246;-84
2022/09/27 07:48:16;;;;;;;2.33;2.00;;;10.90;99.90;;;;;;5074463;28;20198;-84
2022/09/27 07:50:43;;;;;;;5.83;3.63;;;10.90;99.90;;;;;;5074192;28;20718;-85
2022/09/27 07:53:12;;;;;;;5.73;3.27;;;10.80;99.90;;;;;;5074083;28;20296;-84
2022/09/27 07:55:39;;;;;;;3.40;2.47;;;10.90;99.90;;;;;;5074665;28;20226;-84
2022/09/27 07:58:10;;;;;;;4.67;2.47;;;10.90;99.90;;;;;;5073785;28;20203;-83
2022/09/27 08:00:39;;;;;;;6.10;3.13;;;11.00;99.90;;;;;;5073910;28;20242;-84
2022/09/27 08:03:07;;;;;;;7.13;2.70;;;11.00;99.90;;;;;;5074359;28;20194;-84
2022/09/27 08:05:36;;;;;;;7.13;2.77;;;11.00;99.90;;;;;;5074238;28;20246;-83
2022/09/27 08:08:03;;;;;;;3.00;2.20;;;11.00;99.90;;;;;;5075148;28;20285;-83
2022/09/27 08:10:30;;;;;;;3.50;1.83;;;10.90;99.90;;;;;;5075746;28;20203;-84
2022/09/27 08:12:58;;;;;;;4.17;2.13;;;10.80;99.90;;;;;;5076089;28;20360;-83
2022/09/27 08:15:27;;;;;;;4.90;2.60;;;10.70;99.90;;;;;;5075544;28;20305;-84
2022/09/27 08:17:54;;;;;;;5.43;2.80;;;10.70;99.90;;;;;;5074431;28;20202;-84
2022/09/27 08:20:21;;;;;;;5.73;2.63;;;10.60;99.90;;;;;;5075573;28;20297;-84
2022/09/27 08:22:49;;;;;;;5.63;3.20;;;10.60;99.90;;;;;;5074904;28;20257;-84
2022/09/27 08:25:16;;;;;;;4.23;2.53;;;10.70;99.90;;;;;;5074498;28;20656;-84
2022/09/27 08:27:43;;;;;;;3.50;2.10;;;10.70;99.90;;;;;;5075238;28;20718;-83
2022/09/27 08:30:11;;;;;;;3.93;3.30;;;10.70;99.90;;;;;;5074302;28;20241;-85
2022/09/27 08:32:38;;;;;;;6.77;3.27;;;10.70;99.90;;;;;;5074025;28;20270;-83
2022/09/27 08:35:07;;;;;;;6.23;4.00;;;10.60;99.90;;;;;;5073501;28;20285;-83
2022/09/27 08:37:34;;;;;;;6.57;2.70;;;10.80;99.90;;;;;;5074263;28;20221;-85
2022/09/27 08:40:03;;;;;;;3.90;3.20;;;10.80;99.90;;;;;;5073965;28;20229;-84
2022/09/27 08:42:40;;;;;;;3.40;2.73;;;11.00;99.90;;;;;;5073875;28;20293;-84
2022/09/27 08:45:16;;;;;;;3.90;2.77;;;11.10;99.90;;;;;;5073619;28;20282;-84
2022/09/27 08:47:46;;;;;;;3.40;2.43;;;11.10;99.90;;;;;;5074474;28;20645;-84
2022/09/27 08:50:23;;;;;;;3.17;2.60;;;11.10;99.90;;;;;;5075068;28;20194;-83
2022/09/27 08:52:57;;;;;;;3.37;2.13;;;11.10;99.90;;;;;;5075107;28;20619;-83
2022/09/27 08:55:32;;;;;;;5.13;3.60;;;11.10;99.90;;;;;;5073291;28;20309;-83
2022/09/27 08:57:59;;;;;;;3.80;2.40;;;11.20;99.90;;;;;;5074303;28;20309;-84
2022/09/27 09:00:28;;;;;;;3.13;2.40;;;11.20;99.90;;;;;;5073387;28;20313;-84
2022/09/27 09:02:55;;;;;;;4.53;2.80;;;11.30;99.90;;;;;;5074095;28;20285;-84
2022/09/27 09:05:30;;;;;;;3.70;2.30;;;11.40;99.90;;;;;;5073763;28;20250;-85
2022/09/27 09:08:18;;;;;;;3.37;2.13;;;11.40;99.90;;;;;;5072802;28;20197;-84
2022/09/27 09:14:13;;;;;;;5.10;1.90;;;11.50;99.90;;;;;;5073977;28;20240;-84
2022/09/27 09:16:54;;;;;;;3.20;1.83;;;11.60;99.90;;;;;;5068595;28;20714;-84
2022/09/27 09:19:36;;;;;;;3.17;2.00;;;11.50;99.90;;;;;;5051738;28;20202;-83
2022/09/27 09:22:14;;;;;;;4.60;1.90;;;11.60;99.90;;;;;;5050956;28;20644;-84
2022/09/27 09:24:52;;;;;;;3.40;1.50;;;11.70;99.90;;;;;;5053037;28;20218;-84
2022/09/27 09:27:41;;;;;;;2.73;1.87;;;11.70;99.90;;;;;;5052740;28;20636;-84
2022/09/27 09:30:20;;;;;;;3.10;1.47;;;11.90;99.90;;;;;;5053193;28;20205;-85
2022/09/27 09:33:00;;;;;;;2.80;1.63;;;11.70;99.90;;;;;;5052980;28;20229;-84
2022/09/27 09:35:33;;;;;;;2.90;1.40;;;11.90;99.90;;;;;;5052746;28;20223;-84
2022/09/27 09:38:04;;;;;;;7.07;1.97;;;11.90;99.90;;;;;;5059270;28;20288;-85
2022/09/27 09:40:40;;;;;;;2.80;1.00;;;11.80;99.90;;;;;;5073278;28;20257;-84
2022/09/27 09:43:15;;;;;;;2.53;1.30;;;11.80;99.90;;;;;;5065388;28;20255;-84
2022/09/27 09:45:46;;;;;;;2.40;1.53;;;11.90;99.90;;;;;;5053023;28;20236;-84
2022/09/27 09:48:21;;;;;;;1.20;1.13;;;12.00;99.90;;;;;;5052991;28;20222;-85
2022/09/27 09:50:51;;;;;;;2.23;1.10;;;12.30;99.90;;;;;;5052890;28;20270;-84
2022/09/27 09:53:21;;;;;;;6.20;1.67;;;12.20;99.90;;;;;;5052578;28;20274;-83
2022/09/27 09:55:52;;;;;;;3.43;2.13;;;12.10;99.90;;;;;;5052278;28;20250;-84
2022/09/27 09:58:32;;;;;;;5.90;2.83;;;12.10;99.90;;;;;;5052239;28;20546;-84
2022/09/27 10:01:11;;;;;;;3.40;2.40;;;12.10;99.90;;;;;;5052861;28;20249;-84
2022/09/27 10:03:38;;;;;;;4.37;2.50;;;12.10;99.90;;;;;;5052721;28;20259;-84
2022/09/27 10:06:06;;;;;;;2.80;1.40;;;12.30;99.90;;;;;;5052659;28;20215;-84
2022/09/27 10:08:33;;;;;;;2.60;1.90;;;12.30;99.90;;;;;;5052617;28;20285;-85
2022/09/27 10:11:00;;;;;;;1.97;1.47;;;12.40;99.90;;;;;;5051825;28;20301;-85
2022/09/27 10:13:33;;;;;;;2.93;1.70;;;12.50;99.90;;;;;;5052271;28;20627;-85
2022/09/27 10:16:03;;;;;;;2.63;1.40;;;12.40;99.90;;;;;;5052094;28;20298;-85
2022/09/27 10:18:31;;;;;;;4.73;1.90;;;12.60;99.90;;;;;;5052036;28;20256;-85
2022/09/27 10:21:02;;;;;;;3.10;1.50;;;12.70;99.90;;;;;;5052456;28;20306;-85
2022/09/27 10:23:29;;;;;;;4.00;2.03;;;12.80;99.90;;;;;;5051967;28;20647;-85
2022/09/27 10:25:59;;;;;;;1.27;1.00;;;13.10;99.90;;;;;;5052316;28;20218;-84
2022/09/27 10:28:36;;;;;;;4.60;1.17;;;13.60;99.90;;;;;;5052164;28;20203;-83
2022/09/27 10:31:06;;;;;;;3.93;1.70;;;13.90;99.90;;;;;;5052949;28;20257;-84
2022/09/27 10:33:35;;;;;;;1.23;1.10;;;14.20;99.90;;;;;;5051800;28;20295;-85
2022/09/27 10:36:02;;;;;;;4.43;1.00;;;13.90;1.00;;;;;;5051613;28;20695;-84
2022/09/27 10:38:31;;;;;;;1.80;0.90;;;14.00;1.00;;;;;;5051570;28;20198;-85
2022/09/27 10:41:16;;;;;;;0.93;0.80;;;13.90;1.00;;;;;;5051223;28;20246;-83
2022/09/27 10:43:44;;;;;;;2.20;0.93;;;13.70;1.00;;;;;;5051927;28;20211;-84
2022/09/27 10:46:21;;;;;;;3.63;0.60;;;13.50;1.00;;;;;;5051609;28;20322;-84
2022/09/27 10:48:48;;;;;;;1.90;1.20;;;13.70;1.00;;;;;;5051819;28;20274;-85
2022/09/27 10:51:29;;;;;;;3.37;0.97;;;13.90;47.20;;;;;;5051139;28;20655;-85
2022/09/27 10:53:59;;;;;;;0.53;0.50;;;14.10;99.90;;;;;;5062098;28;20277;-84
2022/09/27 10:56:29;;;;;;;2.50;1.00;;;14.00;99.90;;;;;;5073702;28;20657;-83
2022/09/27 10:58:58;;;;;;;3.63;0.80;;;14.10;1.00;;;;;;5072709;28;20226;-84
2022/09/27 11:01:26;;;;;;;1.07;0.60;;;14.30;1.00;;;;;;5074150;28;20218;-84
2022/09/27 11:03:57;;;;;;;2.10;0.80;;;14.50;1.00;;;;;;5074455;28;20320;-85
2022/09/27 11:06:36;;;;;;;0.80;0.50;;;14.30;1.00;;;;;;5074086;28;20305;-85
2022/09/27 11:09:17;;;;;;;3.67;0.93;;;14.40;28.50;;;;;;5074381;28;20203;-85
2022/09/27 11:11:45;;;;;;;1.43;0.73;;;14.30;1.00;;;;;;5073887;28;20238;-85
2022/09/27 11:14:20;;;;;;;3.70;0.90;;;14.30;1.00;;;;;;5072832;28;20593;-84
2022/09/27 11:16:59;;;;;;;1.57;0.67;;;14.30;1.00;;;;;;5076382;28;20300;-85
2022/09/27 11:19:52;;;;;;;1.17;0.80;;;14.20;1.00;;;;;;5074721;28;20281;-85
2022/09/27 11:22:40;;;;;;;2.63;0.60;;;14.80;1.00;;;;;;5074168;28;20297;-85
2022/09/27 11:25:18;;;;;;;3.90;0.87;;;15.10;1.00;;;;;;5073894;28;20190;-86
2022/09/27 11:27:57;;;;;;;1.10;0.70;;;15.40;25.90;;;;;;5073698;28;20643;-85
2022/09/27 11:30:33;;;;;;;0.80;0.60;;;15.90;1.00;;;;;;5073748;28;20416;-85
2022/09/27 11:33:29;;;;;;;3.30;1.30;;;15.20;1.00;;;;;;5074298;28;20646;-85
2022/09/27 11:36:04;;;;;;;0.97;0.53;;;15.00;1.00;;;;;;5073183;28;20576;-85
2022/09/27 11:38:37;;;;;;;0.88;0.40;;;15.00;99.90;;;;;;5072010;28;20370;-85
2022/09/27 11:41:21;;;;;;;0.38;0.20;;;14.40;99.90;;;;;;5078719;28;20217;-85
2022/09/27 11:44:18;;;;;;;0.60;0.60;;;14.30;1.00;;;;;;5074050;28;20667;-87
2022/09/27 11:46:52;;;;;;;0.53;0.50;;;14.70;1.00;;;;;;5057829;28;20226;-84
2022/09/27 11:49:37;;;;;;;1.50;0.70;;;14.70;99.90;;;;;;5056549;28;20245;-85
2022/09/27 11:52:22;;;;;;;1.30;0.50;;;14.90;99.90;;;;;;5079892;28;20622;-84
2022/09/27 11:55:08;;;;;;;1.47;0.30;;;14.80;1.00;;;;;;5057244;28;20639;-85
2022/09/27 11:57:41;;;;;;;0.57;0.57;;;15.50;1.00;;;;;;5074488;28;20208;-86
2022/09/27 12:00:16;;;;;;;1.63;0.50;;;16.00;99.90;;;;;;5074287;28;20247;-85
2022/09/27 12:03:16;;;;;;;0.90;0.20;;;15.90;1.00;;;;;;5075684;28;20261;-82
2022/09/27 12:05:56;;;;;;;1.50;0.40;;;14.70;1.00;;;;;;5074831;28;20229;-85
2022/09/27 12:08:35;;;;;;;1.30;0.40;;;14.30;99.90;;;;;;5074295;28;20236;-85
2022/09/27 12:11:09;;;;;;;1.40;1.00;;;13.90;1.00;;;;;;5073473;28;20190;-85
2022/09/27 12:13:40;;;;;;;2.40;0.73;;;14.20;99.90;;;;;;5076211;28;20210;-85
2022/09/27 12:16:08;;;;;;;2.43;0.60;;;14.10;1.00;;;;;;5078206;28;20523;-84
2022/09/27 12:18:38;;;;;;;2.83;0.73;;;14.40;99.90;;;;;;5083960;28;20217;-83
2022/09/27 12:21:09;;;;;;;2.07;0.67;;;14.50;1.00;;;;;;5074623;28;20202;-84
2022/09/27 12:23:41;;;;;;;0.87;0.60;;;14.40;1.00;;;;;;5092387;28;20197;-85
2022/09/27 12:26:12;;;;;;;1.17;0.53;;;14.50;1.00;;;;;;5094508;28;20231;-84
2022/09/27 12:28:48;;;;;;;2.97;0.63;;;14.50;1.00;;;;;;5075341;28;20379;-82
2022/09/27 12:31:20;;;;;;;2.10;0.70;;;14.40;1.00;;;;;;5074163;28;20657;-83
2022/09/27 12:33:53;;;;;;;1.93;0.80;;;14.40;1.00;;;;;;5073171;28;20292;-85
2022/09/27 12:36:27;;;;;;;0.90;0.30;;;14.30;99.90;;;;;;5073195;28;20237;-86
2022/09/27 12:39:01;;;;;;;2.13;0.70;;;14.10;1.00;;;;;;5072121;28;20208;-86
2022/09/27 12:41:34;;;;;;;1.67;0.67;;;13.70;1.00;;;;;;5073314;28;20332;-84
2022/09/27 12:44:01;;;;;;;2.73;0.80;;;12.70;99.90;;;;;;5075961;28;20571;-84
2022/09/27 12:46:40;;;;;;;3.23;0.93;;;11.90;99.90;;;;;;5076528;28;20218;-82
2022/09/27 12:49:14;;;;;;;0.40;0.40;;;11.50;99.90;;;;;;5073542;28;20209;-84
2022/09/27 12:51:46;;;;;;;2.07;0.90;;;11.30;99.90;;;;;;5077801;28;20186;-84
2022/09/27 12:54:56;;;;;;;0.63;0.30;;;11.30;99.90;;;;;;5077650;28;20273;-85
2022/09/27 12:57:36;;;;;;;1.23;0.37;;;11.50;99.90;;;;;;5074220;28;20213;-85
2022/09/27 13:00:09;;;;;;;0.20;0.20;;;11.30;99.90;;;;;;5073577;28;20864;-86
2022/09/27 13:03:09;;;;;;;0.47;0.33;;;11.30;99.90;;;;;;5074298;28;20271;-86
2022/09/27 13:06:14;;;;;;;0.10;0.10;;;11.30;99.90;;;;;;5075257;28;20717;-85
2022/09/27 13:08:59;;;;;;;4.10;1.37;;;11.20;99.90;;;;;;5073003;28;20201;-86
2022/09/27 13:11:35;;;;;;;0.90;0.87;;;11.80;99.90;;;;;;5088012;28;20617;-86
2022/09/27 13:14:04;;;;;;;3.10;2.70;;;12.00;99.90;;;;;;5071413;28;20208;-86
2022/09/27 13:16:41;;;;;;;2.87;1.97;;;12.30;99.90;;;;;;5091259;28;20210;-86
2022/09/27 13:19:41;;;;;;;3.47;1.80;;;12.70;99.90;;;;;;5092565;28;20209;-86